Time;durP1;ratioP1;P1;durP2;ratioP2;P2;SDS_P1;SDS_P2;PMS_P1;PMS_P2;Temp;Humidity;BMP_temperature;BMP_pressure;BME280_temperature;BME280_humidity;BME280_pressure;Samples;Min_cycle;Max_cycle;Signal;HPM_P1;HPM_P2
2023/08/16 00:01:03;;;;;;;4.22;2.70;;;;;;;21.69;100.00;100593.06;4988886;28;20030;-75
2023/08/16 00:03:28;;;;;;;5.80;3.05;;;;;;;22.28;100.00;100682.25;4987873;28;20046;-74
2023/08/16 00:05:54;;;;;;;2.90;2.03;;;;;;;22.00;100.00;100667.38;4978637;28;20085;-76
2023/08/16 00:08:20;;;;;;;3.25;2.22;;;;;;;21.67;100.00;100594.91;4987662;28;20053;-77
2023/08/16 00:10:45;;;;;;;3.95;2.08;;;;;;;21.96;100.00;100659.56;4988718;28;20362;-76
2023/08/16 00:13:12;;;;;;;3.65;1.98;;;;;;;21.98;100.00;100669.25;4989175;28;20479;-74
2023/08/16 00:15:37;;;;;;;5.65;2.83;;;;;;;21.87;100.00;100642.16;4979133;28;20154;-75
2023/08/16 00:18:05;;;;;;;3.42;2.75;;;;;;;21.99;100.00;100673.69;4984207;28;20126;-75
2023/08/16 00:20:30;;;;;;;3.13;2.38;;;;;;;21.54;100.00;100577.66;4988284;28;20117;-76
2023/08/16 00:22:57;;;;;;;4.65;2.28;;;;;;;21.41;100.00;100551.50;4985600;28;20585;-76
2023/08/16 00:25:23;;;;;;;3.67;2.15;;;;;;;21.61;100.00;100585.38;4988405;28;20034;-75
2023/08/16 00:27:48;;;;;;;8.40;3.20;;;;;;;21.52;100.00;100552.84;4987904;28;20509;-76
2023/08/16 00:30:14;;;;;;;3.70;2.58;;;;;;;21.85;100.00;100614.63;4988618;28;20038;-77
2023/08/16 00:32:41;;;;;;;5.68;2.08;;;;;;;21.99;100.00;100627.38;4981646;28;20394;-76
2023/08/16 00:35:06;;;;;;;3.40;2.10;;;;;;;21.39;100.00;100523.09;4988199;28;20046;-74
2023/08/16 00:37:32;;;;;;;3.47;2.45;;;;;;;21.78;100.00;100570.41;4986643;28;20089;-76
2023/08/16 00:39:58;;;;;;;5.85;2.85;;;;;;;22.08;100.00;100622.50;4988449;28;20038;-75
2023/08/16 00:42:23;;;;;;;3.70;1.98;;;;;;;22.17;100.00;100647.94;4984188;28;20046;-77
2023/08/16 00:44:49;;;;;;;2.92;1.92;;;;;;;22.15;100.00;100631.13;4984346;28;20116;-76
2023/08/16 00:47:14;;;;;;;5.32;3.80;;;;;;;21.49;100.00;100527.13;4979900;28;20442;-76
2023/08/16 00:49:41;;;;;;;4.93;2.40;;;;;;;22.03;100.00;100619.16;5018730;28;20053;-76
2023/08/16 00:52:09;;;;;;;3.92;2.20;;;;;;;22.11;100.00;100638.38;4988399;28;20038;-76
2023/08/16 00:54:35;;;;;;;3.70;2.30;;;;;;;22.17;100.00;100626.53;4982409;28;20050;-75
2023/08/16 00:57:00;;;;;;;4.65;2.30;;;;;;;21.67;100.00;100525.47;4987133;28;20700;-76
2023/08/16 00:59:27;;;;;;;3.72;2.47;;;;;;;21.77;100.00;100540.16;4988016;28;20042;-76
2023/08/16 01:01:53;;;;;;;4.30;2.42;;;;;;;22.30;100.00;100624.25;4979597;28;20034;-74
2023/08/16 01:04:19;;;;;;;4.80;3.33;;;;;;;22.42;100.00;100630.84;4987733;28;20037;-76
2023/08/16 01:06:45;;;;;;;3.83;2.70;;;;;;;22.52;100.00;100650.84;4988158;28;20422;-76
2023/08/16 01:09:11;;;;;;;3.05;1.85;;;;;;;22.58;100.00;100639.88;4986602;28;20052;-75
2023/08/16 01:12:11;;;;;;;4.63;2.50;;;;;;;22.06;100.00;100543.34;4987610;28;20112;-75
2023/08/16 01:14:48;;;;;;;3.95;1.92;;;;;;;22.70;100.00;100633.09;4977495;28;20077;-75
2023/08/16 01:17:15;;;;;;;3.33;2.70;;;;;;;22.20;100.00;100545.38;4985993;28;20050;-76
2023/08/16 01:19:41;;;;;;;3.67;2.33;;;;;;;22.48;100.00;100617.19;4987163;28;20568;-78
2023/08/16 01:22:31;;;;;;;3.75;2.38;;;;;;;22.63;100.00;100634.31;4984993;28;20030;-74
2023/08/16 01:25:21;;;;;;;5.18;3.13;;;;;;;22.73;100.00;100660.59;4986033;28;20038;-75
2023/08/16 01:27:47;;;;;;;7.22;3.05;;;;;;;22.74;100.00;100642.72;4987038;28;20046;-74
2023/08/16 01:30:13;;;;;;;3.42;2.35;;;;;;;22.62;100.00;100643.31;4979202;28;20038;-76
2023/08/16 01:32:38;;;;;;;3.83;1.75;;;;;;;22.32;100.00;100583.13;4986327;28;20286;-76
2023/08/16 01:35:04;;;;;;;2.60;1.55;;;;;;;22.81;100.00;100672.75;4987141;28;20105;-75
2023/08/16 01:37:30;;;;;;;3.20;2.10;;;;;;;22.10;100.00;100559.16;4981750;28;20112;-76
2023/08/16 01:40:02;;;;;;;3.00;1.95;;;;;;;22.76;100.00;100671.13;4987427;28;20023;-74
2023/08/16 01:42:29;;;;;;;4.07;1.63;;;;;;;22.25;100.00;100578.13;4986069;28;20057;-75
2023/08/16 01:45:00;;;;;;;4.40;2.42;;;;;;;22.65;100.00;100665.41;4986265;28;20478;-74
2023/08/16 01:47:28;;;;;;;3.75;2.15;;;;;;;22.79;100.00;100702.22;4982193;28;20042;-75
2023/08/16 01:49:55;;;;;;;2.70;1.67;;;;;;;22.48;100.00;100649.28;4986931;28;20057;-74
2023/08/16 01:52:22;;;;;;;4.47;2.25;;;;;;;22.93;100.00;100734.56;4986498;28;20034;-75
2023/08/16 01:54:47;;;;;;;3.15;1.95;;;;;;;22.93;100.00;100726.53;4982250;28;20281;-74
2023/08/16 01:57:14;;;;;;;5.38;3.00;;;;;;;22.36;100.00;100641.78;4979263;28;20062;-74
2023/08/16 01:59:39;;;;;;;3.08;1.70;;;;;;;22.29;100.00;100642.09;5017863;28;20045;-76
2023/08/16 02:02:05;;;;;;;3.92;2.20;;;;;;;22.69;100.00;100709.81;4986251;28;20046;-73
2023/08/16 02:04:30;;;;;;;7.32;1.73;;;;;;;22.93;100.00;100739.06;4986668;28;20030;-76
2023/08/16 02:06:55;;;;;;;2.45;1.58;;;;;;;22.81;100.00;100700.34;4987114;28;20034;-74
2023/08/16 02:09:21;;;;;;;4.63;1.70;;;;;;;22.40;100.00;100614.84;4986103;28;20042;-74
2023/08/16 02:11:46;;;;;;;2.72;1.58;;;;;;;23.11;100.00;100710.59;4978537;28;20046;-76
2023/08/16 02:14:12;;;;;;;3.00;2.20;;;;;;;22.89;100.00;100638.44;4986125;28;20581;-76
2023/08/16 02:16:37;;;;;;;3.30;2.00;;;;;;;23.02;100.00;100636.97;4984019;28;20061;-77
2023/08/16 02:19:03;;;;;;;4.00;3.25;;;;;;;22.52;100.00;100543.88;4986493;28;20042;-75
2023/08/16 02:21:28;;;;;;;4.07;2.75;;;;;;;22.94;100.00;100578.41;4986620;28;20046;-75
2023/08/16 02:23:54;;;;;;;3.08;1.75;;;;;;;22.75;100.00;100554.34;4986333;28;20076;-74
2023/08/16 02:26:19;;;;;;;2.80;1.67;;;;;;;23.11;100.00;100604.38;4985820;28;20410;-75
2023/08/16 02:28:45;;;;;;;4.57;2.10;;;;;;;22.56;100.00;100489.31;4986490;28;20038;-75
2023/08/16 02:31:10;;;;;;;11.95;1.80;;;;;;;23.21;100.00;100570.00;4986982;28;20046;-75
2023/08/16 02:33:36;;;;;;;6.65;1.67;;;;;;;23.09;100.00;100575.97;5016671;28;20103;-75
2023/08/16 02:36:02;;;;;;;4.15;2.72;;;;;;;22.46;100.00;100498.72;4984783;28;20058;-75
2023/08/16 02:38:31;;;;;;;3.45;2.30;;;;;;;22.93;100.00;100619.50;4986168;28;20089;-75
2023/08/16 02:40:56;;;;;;;3.33;1.80;;;;;;;21.97;100.00;100506.34;4986490;28;20097;-76
2023/08/16 02:43:22;;;;;;;2.88;1.92;;;;;;;22.37;100.00;100587.41;5021490;28;20421;-77
2023/08/16 02:45:47;;;;;;;6.20;2.35;;;;;;;21.71;100.00;100521.75;4989995;28;20065;-77
2023/08/16 02:48:12;;;;;;;4.90;2.47;;;;;;;21.53;100.00;100581.28;4986875;28;20053;-76
2023/08/16 02:50:38;;;;;;;4.75;1.77;;;;;;;20.99;100.00;100519.47;4989424;28;20496;-77
2023/08/16 02:53:04;;;;;;;3.83;2.00;;;;;;;21.09;100.00;100520.78;4983122;28;20050;-76
2023/08/16 02:55:30;;;;;;;8.63;3.42;;;;;;;20.96;100.00;100530.28;4987997;28;20124;-75
2023/08/16 02:57:55;;;;;;;6.85;3.38;;;;;;;21.42;100.00;100662.72;4988851;28;20049;-78
2023/08/16 03:00:21;;;;;;;3.22;2.00;;;;;;;21.04;100.00;100657.06;4989575;28;20430;-75
2023/08/16 03:02:46;;;;;;;8.23;2.63;;;;;;;20.32;100.00;100541.63;4990204;28;20050;-75
2023/08/16 03:05:12;;;;;;;5.32;2.70;;;;;;;20.81;100.00;100615.31;4989675;28;20046;-76
2023/08/16 03:07:39;;;;;;;3.38;2.33;;;;;;;21.12;100.00;100613.19;4986503;28;20050;-75
2023/08/16 03:10:05;;;;;;;4.97;2.47;;;;;;;20.58;100.00;100514.88;4985687;28;20084;-76
2023/08/16 03:12:30;;;;;;;2.55;1.90;;;;;;;20.85;100.00;100568.91;4989383;28;20157;-76
2023/08/16 03:14:56;;;;;;;3.65;1.52;;;;;;;21.27;100.00;100610.78;4987376;28;20137;-75
2023/08/16 03:17:21;;;;;;;3.13;2.45;;;;;;;20.91;100.00;100553.56;4989408;28;20097;-74
2023/08/16 03:19:47;;;;;;;3.08;1.80;;;;;;;21.28;100.00;100608.97;4989991;28;20390;-76
2023/08/16 03:22:13;;;;;;;4.03;2.42;;;;;;;21.52;100.00;100697.94;4988544;28;20074;-76
2023/08/16 03:24:38;;;;;;;5.32;2.58;;;;;;;21.08;100.00;100567.09;4989322;28;20046;-76
2023/08/16 03:27:04;;;;;;;2.72;2.03;;;;;;;21.51;100.00;100618.72;4989499;28;20050;-79
2023/08/16 03:29:29;;;;;;;3.10;2.10;;;;;;;21.95;100.00;100708.63;4989049;28;20109;-76
2023/08/16 03:31:55;;;;;;;5.05;2.15;;;;;;;20.94;100.00;100593.47;4989335;28;20046;-77
2023/08/16 03:34:22;;;;;;;3.33;1.85;;;;;;;20.81;100.00;100510.41;4989028;28;20062;-76
2023/08/16 03:36:47;;;;;;;3.47;2.25;;;;;;;21.85;100.00;100630.66;4984399;28;20722;-75
2023/08/16 03:39:13;;;;;;;3.53;1.75;;;;;;;22.16;100.00;100635.50;4984321;28;20050;-75
2023/08/16 03:41:38;;;;;;;3.38;1.67;;;;;;;21.69;100.00;100550.31;4989062;28;20140;-74
2023/08/16 03:44:06;;;;;;;4.07;2.47;;;;;;;21.80;100.00;100540.03;4988799;28;20108;-75
2023/08/16 03:46:32;;;;;;;2.70;1.67;;;;;;;22.46;100.00;100644.00;4987702;28;20040;-75
2023/08/16 03:48:57;;;;;;;4.28;1.75;;;;;;;22.24;100.00;100630.75;4985092;28;20101;-74
2023/08/16 03:51:23;;;;;;;2.92;1.98;;;;;;;22.11;100.00;100633.03;4987992;28;20046;-75
2023/08/16 03:53:48;;;;;;;4.50;1.67;;;;;;;21.28;100.00;100502.19;4988900;28;20435;-74
2023/08/16 03:56:14;;;;;;;2.80;1.55;;;;;;;21.75;100.00;100587.47;4988274;28;20172;-77
2023/08/16 03:58:39;;;;;;;3.05;1.63;;;;;;;21.83;100.00;100620.03;4988546;28;20453;-76
2023/08/16 04:01:05;;;;;;;6.25;2.13;;;;;;;21.52;100.00;100576.88;4989263;28;20478;-75
2023/08/16 04:03:30;;;;;;;4.95;2.53;;;;;;;22.08;100.00;100661.72;4982028;28;20054;-74
2023/08/16 04:05:56;;;;;;;2.10;1.08;;;;;;;22.13;100.00;100660.56;4980800;28;20053;-77
2023/08/16 04:08:22;;;;;;;2.47;1.50;;;;;;;21.32;100.00;100482.47;4988188;28;20046;-76
2023/08/16 04:10:47;;;;;;;3.28;2.30;;;;;;;22.23;100.00;100622.78;4988440;28;20050;-76
2023/08/16 04:13:13;;;;;;;2.88;2.00;;;;;;;22.24;100.00;100601.34;4988249;28;20501;-75
2023/08/16 04:15:38;;;;;;;5.55;2.40;;;;;;;21.78;100.00;100514.31;4986340;28;20610;-76
2023/08/16 04:18:04;;;;;;;2.63;1.40;;;;;;;22.15;100.00;100607.06;4980866;28;20080;-75
2023/08/16 04:20:29;;;;;;;3.80;2.63;;;;;;;22.09;100.00;100580.59;4988108;28;20477;-77
2023/08/16 04:22:55;;;;;;;3.58;1.10;;;;;;;22.00;100.00;100563.16;4987482;28;20050;-77
2023/08/16 04:25:20;;;;;;;3.85;1.75;;;;;;;22.55;100.00;100621.31;4987947;28;20478;-76
2023/08/16 04:27:46;;;;;;;2.55;1.80;;;;;;;21.85;100.00;100486.41;4988509;28;20027;-76
2023/08/16 04:30:11;;;;;;;2.53;1.58;;;;;;;22.82;100.00;100653.91;4988194;28;20038;-76
2023/08/16 04:32:37;;;;;;;2.60;1.40;;;;;;;22.17;100.00;100540.16;4981414;28;20409;-76
2023/08/16 04:35:03;;;;;;;3.22;1.80;;;;;;;22.54;100.00;100577.63;4987825;28;20243;-75
2023/08/16 04:37:29;;;;;;;2.97;2.25;;;;;;;23.32;100.00;100676.53;4986371;28;20058;-77
2023/08/16 04:39:55;;;;;;;4.63;1.85;;;;;;;23.10;100.00;100629.41;4988315;28;20050;-76
2023/08/16 04:42:20;;;;;;;4.28;1.85;;;;;;;23.12;100.00;100627.53;4987430;28;20067;-75
2023/08/16 04:44:46;;;;;;;2.50;1.73;;;;;;;23.22;100.00;100652.03;4983804;28;20509;-77
2023/08/16 04:47:12;;;;;;;4.10;1.77;;;;;;;23.11;100.00;100651.72;4978389;28;20375;-76
2023/08/16 04:49:37;;;;;;;5.13;1.92;;;;;;;23.34;100.00;100702.34;4987300;28;20153;-75
2023/08/16 04:52:03;;;;;;;3.25;2.38;;;;;;;23.31;100.00;100707.81;4987809;28;20030;-75
2023/08/16 04:54:29;;;;;;;4.72;1.63;;;;;;;22.70;100.00;100582.25;4984162;28;20050;-77
2023/08/16 04:56:54;;;;;;;2.30;1.48;;;;;;;22.82;100.00;100600.41;4985158;28;20049;-76
2023/08/16 04:59:20;;;;;;;4.95;2.25;;;;;;;23.36;100.00;100684.34;4987495;28;20613;-75
2023/08/16 05:01:45;;;;;;;2.60;1.73;;;;;;;23.29;100.00;100671.34;4986900;28;20039;-76
2023/08/16 05:04:11;;;;;;;3.40;2.55;;;;;;;23.45;100.00;100690.22;4987738;28;20169;-77
2023/08/16 05:06:37;;;;;;;2.38;1.33;;;;;;;23.12;100.00;100624.84;4987525;28;20382;-75
2023/08/16 05:09:04;;;;;;;2.58;1.73;;;;;;;23.28;100.00;100683.88;4979608;28;20049;-74
2023/08/16 05:11:32;;;;;;;7.60;2.30;;;;;;;23.46;100.00;100703.56;4987437;28;20046;-77
2023/08/16 05:13:58;;;;;;;6.18;3.03;;;;;;;23.51;100.00;100704.19;4986232;28;20050;-75
2023/08/16 05:16:24;;;;;;;2.42;1.60;;;;;;;22.89;100.00;100576.91;4984043;28;20474;-77
2023/08/16 05:18:50;;;;;;;2.50;1.17;;;;;;;23.50;100.00;100683.69;4987461;28;20022;-77
2023/08/16 05:21:15;;;;;;;3.10;1.70;;;;;;;22.92;100.00;100592.78;4987325;28;20035;-76
2023/08/16 05:23:41;;;;;;;3.50;1.80;;;;;;;23.49;100.00;100686.47;4987690;28;20050;-74
2023/08/16 05:26:06;;;;;;;4.47;2.25;;;;;;;23.64;100.00;100711.59;4986540;28;20058;-75
2023/08/16 05:28:32;;;;;;;4.55;1.40;;;;;;;23.58;100.00;100694.03;4983237;28;20045;-78
2023/08/16 05:31:09;;;;;;;3.10;1.83;;;;;;;23.68;100.00;100715.88;4981330;28;20045;-76
2023/08/16 05:33:35;;;;;;;2.88;1.60;;;;;;;23.76;100.00;100743.19;5011298;28;20097;-75
2023/08/16 05:36:00;;;;;;;3.70;2.17;;;;;;;23.61;100.00;100720.66;4984664;28;20120;-76
2023/08/16 05:38:26;;;;;;;3.65;1.85;;;;;;;25.05;100.00;100752.56;4975490;28;20039;-76
2023/08/16 05:40:51;;;;;;;1.80;0.98;;;;;;;24.94;100.00;100669.94;4978241;28;20128;-74
2023/08/16 05:43:16;;;;;;;6.93;2.13;;;;;;;25.64;100.00;100651.63;4977113;28;20390;-75
2023/08/16 05:45:42;;;;;;;12.90;2.00;;;;;;;26.33;100.00;100678.88;4986044;28;20038;-75
2023/08/16 05:48:07;;;;;;;4.68;2.53;;;;;;;27.02;100.00;100771.56;4978224;28;20426;-75
2023/08/16 05:50:34;;;;;;;4.90;1.80;;;;;;;27.70;100.00;100792.38;4984849;28;20050;-76
2023/08/16 05:52:59;;;;;;;2.72;1.38;;;;;;;27.90;100.00;100764.09;4985977;28;20542;-75
2023/08/16 05:55:25;;;;;;;4.38;2.15;;;;;;;28.23;95.67;100792.44;4985323;28;20038;-76
2023/08/16 05:57:50;;;;;;;2.88;1.50;;;;;;;27.94;96.26;100711.66;4980927;28;20034;-74
2023/08/16 06:00:16;;;;;;;4.32;3.03;;;;;;;28.88;88.17;100798.84;4986094;28;20038;-76
2023/08/16 06:02:42;;;;;;;1.88;1.27;;;;;;;28.85;82.64;100801.75;4980665;28;20534;-76
2023/08/16 06:05:09;;;;;;;6.47;1.75;;;;;;;28.35;88.68;100796.16;4985126;28;20054;-75
2023/08/16 06:07:34;;;;;;;5.13;2.80;;;;;;;28.35;83.56;100707.97;4985591;28;20034;-76
2023/08/16 06:10:00;;;;;;;3.53;2.03;;;;;;;27.94;87.56;100772.84;4986988;28;20031;-74
2023/08/16 06:12:25;;;;;;;2.88;1.77;;;;;;;27.79;94.01;100805.25;4981797;28;20065;-76
2023/08/16 06:14:50;;;;;;;2.53;1.85;;;;;;;26.01;100.00;100694.28;4984744;28;20042;-75
2023/08/16 06:17:16;;;;;;;2.85;1.52;;;;;;;26.02;100.00;100720.25;4985908;28;20050;-75
2023/08/16 06:19:41;;;;;;;2.85;1.20;;;;;;;26.22;100.00;100713.66;4984486;28;20049;-75
2023/08/16 06:22:07;;;;;;;1.63;1.27;;;;;;;26.69;100.00;100778.09;4984617;28;20467;-75
2023/08/16 06:24:34;;;;;;;2.15;1.23;;;;;;;26.13;100.00;100793.09;4975494;28;20053;-75
2023/08/16 06:26:59;;;;;;;15.30;2.42;;;;;;;25.51;100.00;100690.91;4985109;28;20042;-77
2023/08/16 06:29:25;;;;;;;1.65;1.00;;;;;;;25.87;100.00;100770.41;4986137;28;20034;-75
2023/08/16 06:31:50;;;;;;;2.63;1.73;;;;;;;24.94;100.00;100671.78;4983393;28;20046;-77
2023/08/16 06:34:16;;;;;;;2.40;1.70;;;;;;;24.40;100.00;100634.44;4986910;28;20117;-76
2023/08/16 06:36:43;;;;;;;5.97;1.50;;;;;;;24.75;100.00;100696.09;4987123;28;20045;-77
2023/08/16 06:39:09;;;;;;;2.15;1.13;;;;;;;24.92;100.00;100679.91;4982798;28;20954;-75
2023/08/16 06:41:34;;;;;;;2.45;1.33;;;;;;;25.41;100.00;100756.91;4976938;28;20046;-76
2023/08/16 06:44:00;;;;;;;2.00;1.27;;;;;;;26.13;100.00;100763.50;4984912;28;20188;-76
2023/08/16 06:46:25;;;;;;;3.05;1.58;;;;;;;25.84;100.00;100738.28;4983008;28;20034;-76
2023/08/16 06:48:51;;;;;;;4.40;2.80;;;;;;;25.17;100.00;100719.69;4983604;28;20053;-75
2023/08/16 06:51:16;;;;;;;2.95;1.92;;;;;;;24.52;100.00;100651.72;4983160;28;20054;-76
2023/08/16 06:53:44;;;;;;;4.22;2.28;;;;;;;24.77;100.00;100640.47;4983537;28;20061;-76
2023/08/16 06:56:09;;;;;;;3.95;2.10;;;;;;;25.59;100.00;100742.41;4985496;28;20137;-76
2023/08/16 06:58:35;;;;;;;3.67;2.05;;;;;;;24.70;100.00;100688.28;4981314;28;20121;-75
2023/08/16 07:01:00;;;;;;;3.78;1.48;;;;;;;24.58;100.00;100702.34;4976386;28;20045;-75
2023/08/16 07:03:26;;;;;;;2.92;1.88;;;;;;;24.99;100.00;100774.41;4983220;28;20073;-76
2023/08/16 07:05:51;;;;;;;1.67;1.30;;;;;;;25.17;100.00;100794.88;4979234;28;20084;-75
2023/08/16 07:08:17;;;;;;;3.03;1.27;;;;;;;25.36;100.00;100775.97;5009916;28;20058;-76
2023/08/16 07:10:43;;;;;;;4.75;2.05;;;;;;;25.81;100.00;100785.03;4977819;28;20038;-75
2023/08/16 07:13:09;;;;;;;3.45;1.67;;;;;;;25.76;100.00;100752.19;4981594;28;20851;-76
2023/08/16 07:15:34;;;;;;;5.95;2.65;;;;;;;25.99;100.00;100814.53;4982332;28;20085;-76
2023/08/16 07:18:01;;;;;;;3.33;1.70;;;;;;;26.11;100.00;100838.06;4982585;28;20039;-76
2023/08/16 07:20:26;;;;;;;5.53;1.70;;;;;;;25.87;100.00;100816.13;4985639;28;20050;-75
2023/08/16 07:22:51;;;;;;;4.30;2.30;;;;;;;25.34;100.00;100726.81;4980815;28;20129;-77
2023/08/16 07:25:17;;;;;;;4.97;2.45;;;;;;;25.03;100.00;100682.84;4984404;28;20259;-76
2023/08/16 07:27:43;;;;;;;2.72;2.15;;;;;;;25.37;100.00;100756.19;4986379;28;20104;-75
2023/08/16 07:30:08;;;;;;;5.80;2.80;;;;;;;24.80;100.00;100685.97;5009549;28;20165;-76
2023/08/16 07:32:34;;;;;;;3.67;2.20;;;;;;;25.07;100.00;100723.81;4984675;28;20598;-75
2023/08/16 07:34:59;;;;;;;3.97;1.75;;;;;;;25.20;100.00;100740.16;4984389;28;20042;-75
2023/08/16 07:37:31;;;;;;;6.85;1.67;;;;;;;25.14;100.00;100735.94;4986086;28;20038;-75
2023/08/16 07:39:58;;;;;;;2.53;1.48;;;;;;;25.35;100.00;100779.59;4981839;28;20050;-75
2023/08/16 07:42:24;;;;;;;2.70;1.60;;;;;;;25.16;100.00;100782.41;4985005;28;20192;-75
2023/08/16 07:44:49;;;;;;;2.25;1.48;;;;;;;25.25;100.00;100789.13;4984877;28;20062;-75
2023/08/16 07:47:15;;;;;;;4.28;2.15;;;;;;;24.63;100.00;100695.78;4979323;28;20046;-73
2023/08/16 07:49:41;;;;;;;6.03;2.58;;;;;;;25.24;100.00;100764.09;4982674;28;20089;-75
2023/08/16 07:52:07;;;;;;;3.45;1.77;;;;;;;24.69;100.00;100599.78;4982889;28;20047;-74
2023/08/16 07:54:32;;;;;;;5.38;2.00;;;;;;;23.97;100.00;100491.94;4979372;28;20038;-77
2023/08/16 07:56:58;;;;;;;2.95;1.98;;;;;;;24.63;100.00;100627.81;4985497;28;20134;-76
2023/08/16 07:59:24;;;;;;;3.15;1.63;;;;;;;24.57;100.00;100614.75;4984529;28;20073;-74
2023/08/16 08:01:51;;;;;;;3.05;2.03;;;;;;;24.31;100.00;100549.97;4977947;28;20046;-77
2023/08/16 08:04:16;;;;;;;3.67;2.22;;;;;;;25.10;100.00;100634.16;4978967;28;20449;-75
2023/08/16 08:06:41;;;;;;;5.05;2.47;;;;;;;25.27;100.00;100650.22;4980742;28;20042;-76
2023/08/16 08:09:07;;;;;;;4.90;3.92;;;;;;;25.35;100.00;100629.13;4984239;28;20125;-75
2023/08/16 08:11:32;;;;;;;3.97;2.95;;;;;;;25.66;100.00;100638.06;5015695;28;20509;-77
2023/08/16 08:13:58;;;;;;;4.18;1.90;;;;;;;26.01;100.00;100678.16;4979985;28;20112;-75
2023/08/16 08:16:25;;;;;;;7.40;2.08;;;;;;;26.04;100.00;100653.78;4980369;28;20034;-75
2023/08/16 08:18:50;;;;;;;10.40;2.97;;;;;;;25.74;100.00;100603.56;4989208;28;20848;-75
2023/08/16 08:21:16;;;;;;;3.38;2.38;;;;;;;25.53;100.00;100572.59;4982575;28;20054;-77
2023/08/16 08:23:41;;;;;;;4.53;3.70;;;;;;;26.29;100.00;100713.22;4983034;28;20390;-74
2023/08/16 08:26:07;;;;;;;3.35;2.08;;;;;;;25.68;100.00;100610.19;4981981;28;20080;-74
2023/08/16 08:28:32;;;;;;;4.07;2.08;;;;;;;25.82;100.00;100616.53;4975849;28;20042;-75
2023/08/16 08:31:02;;;;;;;6.97;2.72;;;;;;;26.48;100.00;100707.56;4983096;28;20026;-74
2023/08/16 08:33:28;;;;;;;2.90;2.25;;;;;;;26.12;100.00;100608.44;4984924;28;20074;-74
2023/08/16 08:35:53;;;;;;;7.70;2.30;;;;;;;26.94;100.00;100711.91;4983490;28;21133;-75
2023/08/16 08:38:18;;;;;;;3.13;1.58;;;;;;;27.19;100.00;100726.50;4980836;28;20398;-75
2023/08/16 08:40:46;;;;;;;13.70;2.97;;;;;;;26.83;100.00;100628.22;4981106;28;20046;-74
2023/08/16 08:43:17;;;;;;;7.05;3.25;;;;;;;27.52;100.00;100735.09;4979088;28;20039;-74
2023/08/16 08:45:46;;;;;;;3.60;2.40;;;;;;;27.52;100.00;100728.84;4988510;28;20133;-75
2023/08/16 08:48:12;;;;;;;3.67;3.15;;;;;;;27.58;100.00;100709.56;5015075;28;20054;-75
2023/08/16 08:50:39;;;;;;;3.03;1.92;;;;;;;27.57;100.00;100703.31;4986037;28;20413;-75
2023/08/16 08:53:04;;;;;;;2.78;2.10;;;;;;;27.61;100.00;100724.69;4983463;28;20130;-73
2023/08/16 08:55:32;;;;;;;9.05;2.53;;;;;;;27.08;100.00;100643.69;4985822;28;20121;-74
2023/08/16 08:58:01;;;;;;;2.80;2.33;;;;;;;27.81;100.00;100718.81;4990312;28;20042;-74
2023/08/16 09:00:28;;;;;;;3.90;2.05;;;;;;;27.97;100.00;100664.72;4985297;28;20141;-76
2023/08/16 09:02:56;;;;;;;4.43;2.72;;;;;;;28.41;97.49;100693.16;4987183;28;20089;-75
2023/08/16 09:05:22;;;;;;;5.15;2.45;;;;;;;28.39;96.10;100711.28;4985200;28;20222;-74
2023/08/16 09:07:48;;;;;;;4.18;1.80;;;;;;;28.59;93.64;100702.69;4980722;28;20046;-74
2023/08/16 09:10:16;;;;;;;3.13;1.75;;;;;;;28.80;92.25;100723.75;4984970;28;20081;-75
2023/08/16 09:12:42;;;;;;;3.15;1.85;;;;;;;28.31;90.47;100643.50;4983020;28;20530;-75
2023/08/16 09:15:09;;;;;;;1.90;1.48;;;;;;;28.52;87.05;100630.34;4980121;28;20046;-74
2023/08/16 09:17:35;;;;;;;3.70;1.95;;;;;;;28.68;86.94;100654.38;4979737;28;20097;-74
2023/08/16 09:20:01;;;;;;;4.35;3.15;;;;;;;29.54;84.76;100667.84;4985421;28;20042;-73
2023/08/16 09:22:28;;;;;;;3.65;2.83;;;;;;;29.78;80.31;100684.13;4982542;28;20038;-74
2023/08/16 09:24:56;;;;;;;6.97;3.25;;;;;;;29.22;79.37;100598.16;4982248;28;20060;-75
2023/08/16 09:27:26;;;;;;;4.70;2.45;;;;;;;29.61;80.31;100700.72;4980503;28;20082;-74
2023/08/16 09:29:55;;;;;;;4.18;2.17;;;;;;;30.10;77.14;100705.09;4983627;28;20462;-75
2023/08/16 09:32:21;;;;;;;3.95;2.20;;;;;;;30.14;77.74;100668.72;4983336;28;20089;-75
2023/08/16 09:34:48;;;;;;;5.35;3.08;;;;;;;29.82;75.97;100634.16;4979745;28;20088;-75
2023/08/16 09:37:15;;;;;;;1.83;1.40;;;;;;;29.37;76.80;100620.47;4977687;28;20045;-73
2023/08/16 09:39:40;;;;;;;4.18;2.53;;;;;;;30.03;75.36;100642.47;5004209;28;20076;-74
2023/08/16 09:42:10;;;;;;;4.50;2.38;;;;;;;31.00;69.74;100689.00;4995127;28;20708;-74
2023/08/16 09:44:36;;;;;;;3.17;2.35;;;;;;;31.02;68.69;100672.59;4984594;28;20050;-76
2023/08/16 09:47:13;;;;;;;3.70;2.25;;;;;;;30.80;65.27;100611.13;4976527;28;20051;-75
2023/08/16 09:49:39;;;;;;;5.25;1.92;;;;;;;31.48;68.05;100680.53;4980599;28;20133;-74
2023/08/16 09:52:10;;;;;;;2.40;1.40;;;;;;;31.21;61.93;100610.47;4984038;28;20102;-73
2023/08/16 09:54:36;;;;;;;1.63;1.25;;;;;;;31.10;62.80;100703.53;4986097;28;20145;-74
2023/08/16 09:57:01;;;;;;;3.63;1.83;;;;;;;29.51;68.26;100624.81;4984762;28;20058;-75
2023/08/16 09:59:28;;;;;;;2.28;1.67;;;;;;;29.35;79.15;100627.81;4978927;28;20135;-72
2023/08/16 10:01:55;;;;;;;9.32;2.33;;;;;;;29.87;77.45;100685.22;4970699;28;20038;-74
2023/08/16 10:04:20;;;;;;;4.20;2.92;;;;;;;29.27;78.75;100603.22;4975941;28;20030;-75
2023/08/16 10:06:46;;;;;;;3.58;2.88;;;;;;;29.90;76.34;100679.59;4983523;28;20374;-76
2023/08/16 10:09:12;;;;;;;5.40;3.50;;;;;;;30.14;75.32;100671.41;4978018;28;20050;-74
2023/08/16 10:11:39;;;;;;;7.03;2.92;;;;;;;30.34;72.63;100698.78;4983917;28;20166;-77
2023/08/16 10:14:08;;;;;;;5.95;3.45;;;;;;;31.08;67.90;100694.66;4983430;28;20054;-73
2023/08/16 10:16:36;;;;;;;7.30;4.38;;;;;;;31.49;66.04;100697.66;4980627;28;20057;-73
2023/08/16 10:19:02;;;;;;;11.07;7.05;;;;;;;31.31;63.74;100671.06;4982775;28;20057;-75
2023/08/16 10:21:30;;;;;;;7.13;4.28;;;;;;;30.77;66.04;100677.28;4983660;28;20078;-75
2023/08/16 10:23:57;;;;;;;7.57;3.40;;;;;;;30.66;70.00;100650.19;4986716;28;20038;-75
2023/08/16 10:26:25;;;;;;;5.80;4.10;;;;;;;30.84;64.72;100674.97;4983417;28;20100;-79
2023/08/16 10:28:54;;;;;;;4.70;2.72;;;;;;;30.87;65.75;100672.88;5014976;28;20054;-76
2023/08/16 10:31:25;;;;;;;5.97;3.25;;;;;;;31.24;62.73;100622.91;4982612;28;20038;-69
2023/08/16 10:33:55;;;;;;;7.15;4.85;;;;;;;31.40;60.92;100625.16;4986755;28;20042;-74
2023/08/16 10:36:21;;;;;;;5.55;3.50;;;;;;;31.93;60.17;100644.19;4982089;28;20577;-73
2023/08/16 10:38:54;;;;;;;6.35;5.07;;;;;;;31.50;59.76;100615.31;4983163;28;20074;-76
2023/08/16 10:41:21;;;;;;;5.90;4.07;;;;;;;32.00;58.86;100607.38;4985167;28;20113;-72
2023/08/16 10:43:52;;;;;;;5.10;4.32;;;;;;;32.47;59.33;100683.84;4984599;28;20855;-78
2023/08/16 10:46:31;;;;;;;9.82;6.78;;;;;;;31.93;59.11;100625.19;4982111;28;20113;-76
2023/08/16 10:48:58;;;;;;;4.43;3.05;;;;;;;31.30;59.96;100679.31;4983886;28;20141;-74
2023/08/16 10:51:24;;;;;;;6.50;5.13;;;;;;;30.82;63.80;100610.03;4985775;28;20054;-75
2023/08/16 10:53:50;;;;;;;7.97;4.72;;;;;;;30.40;67.55;100595.41;4974031;28;20054;-74
2023/08/16 10:56:17;;;;;;;7.40;5.95;;;;;;;30.82;69.76;100675.06;4983861;28;20513;-78
2023/08/16 10:58:50;;;;;;;5.95;3.50;;;;;;;31.71;63.76;100685.88;4984295;28;20050;-74
2023/08/16 11:01:20;;;;;;;;;;;;;;;32.05;61.84;100683.88;4990212;28;20045;-73
2023/08/16 11:03:49;;;;;;;6.50;4.55;;;;;;;32.22;61.89;100666.13;4988687;28;19925;-74
2023/08/16 11:06:16;;;;;;;6.35;3.85;;;;;;;32.33;60.20;100681.47;4988238;28;20112;-68
2023/08/16 11:08:43;;;;;;;6.82;4.45;;;;;;;32.43;58.58;100674.25;4987547;28;20355;-75
2023/08/16 11:11:10;;;;;;;5.05;3.38;;;;;;;32.12;61.55;100679.66;4983799;28;20057;-78
2023/08/16 11:13:35;;;;;;;4.35;2.72;;;;;;;31.44;62.74;100657.34;4988415;28;20034;-73
2023/08/16 11:16:01;;;;;;;3.88;2.13;;;;;;;30.36;64.53;100556.03;4988932;28;20371;-73